Time;durP1;ratioP1;P1;durP2;ratioP2;P2;SDS_P1;SDS_P2;PMS_P1;PMS_P2;Temp;Humidity;BMP_temperature;BMP_pressure;BME280_temperature;BME280_humidity;BME280_pressure;Samples;Min_cycle;Max_cycle;Signal;HPM_P1;HPM_P2
2024/04/09 00:01:59;;;;;;;;;;;;;;;18.76;57.88;98583.05;68083;1275;1016426;-67
2024/04/09 00:05:08;;;;;;;;;;;;;;;18.65;58.09;98582.45;68038;1275;1016845;-67
2024/04/09 00:08:12;;;;;;;;;;;;;;;18.54;58.21;98580.52;68073;1275;1016055;-68
2024/04/09 00:11:21;;;;;;;;;;;;;;;18.50;58.39;98581.66;68019;1275;1016436;-67
2024/04/09 00:14:30;;;;;;;;;;;;;;;18.50;58.42;98586.64;68053;1275;1017300;-67
2024/04/09 00:17:39;;;;;;;;;;;;;;;18.53;59.72;98582.63;68018;1275;1016372;-67
2024/04/09 00:20:44;;;;;;;;;;;;;;;18.72;59.34;98584.08;68021;1275;1016014;-68
2024/04/09 00:23:47;;;;;;;;;;;;;;;18.78;59.14;98584.45;67994;1275;1016415;-66
2024/04/09 00:26:50;;;;;;;;;;;;;;;18.83;59.44;98577.07;68013;1275;1016253;-68
2024/04/09 00:29:54;;;;;;;;;;;;;;;18.83;59.30;98587.27;68065;1275;1016435;-67
2024/04/09 00:32:58;;;;;;;;;;;;;;;18.80;59.13;98589.17;68023;1275;1016408;-68
2024/04/09 00:36:02;;;;;;;;;;;;;;;18.84;58.70;98589.55;68061;1275;1016182;-67
2024/04/09 00:39:27;;;;;;;;;;;;;;;18.77;58.73;98585.77;68031;1275;1016419;-68
2024/04/09 00:42:31;;;;;;;;;;;;;;;18.71;58.98;98579.96;68008;1275;1016285;-68
2024/04/09 00:45:33;;;;;;;;;;;;;;;18.65;58.99;98581.48;68022;1275;1015735;-67
2024/04/09 00:48:42;;;;;;;;;;;;;;;18.80;58.52;98580.14;68045;1275;1016364;-67
2024/04/09 00:51:46;;;;;;;;;;;;;;;18.68;58.73;98576.84;68043;1275;1016450;-68
2024/04/09 00:54:52;;;;;;;;;;;;;;;18.75;59.04;98578.52;68020;1275;1016489;-67
2024/04/09 00:58:11;;;;;;;;;;;;;;;18.83;59.05;98579.32;68021;1275;1016420;-67
2024/04/09 01:01:16;;;;;;;;;;;;;;;18.87;58.95;98579.48;68053;1275;1016259;-68
2024/04/09 01:04:19;;;;;;;;;;;;;;;18.83;58.92;98578.56;67986;1275;1015939;-66
2024/04/09 01:07:22;;;;;;;;;;;;;;;18.91;58.24;98581.80;68051;1275;1016476;-67
2024/04/09 01:10:35;;;;;;;;;;;;;;;18.62;58.49;98587.09;68071;1275;1018345;-67
2024/04/09 01:13:39;;;;;;;;;;;;;;;18.57;58.89;98585.45;67988;1275;1015948;-66
2024/04/09 01:16:44;;;;;;;;;;;;;;;18.47;58.61;98586.55;68028;1275;1017277;-68
2024/04/09 01:19:48;;;;;;;;;;;;;;;18.15;59.86;98590.83;68002;1275;1015971;-66
2024/04/09 01:22:51;;;;;;;;;;;;;;;17.94;60.63;98588.44;67982;1275;1016327;-67
2024/04/09 01:25:54;;;;;;;;;;;;;;;17.87;60.60;98592.25;67999;1275;1016477;-68
2024/04/09 01:28:57;;;;;;;;;;;;;;;17.89;60.67;98594.20;67987;1275;1016129;-66
2024/04/09 01:32:01;;;;;;;;;;;;;;;18.04;60.49;98591.95;67967;1275;1016359;-67
2024/04/09 01:35:06;;;;;;;;;;;;;;;18.14;59.92;98593.41;68060;1275;1016304;-67
2024/04/09 01:38:09;;;;;;;;;;;;;;;18.15;59.98;98594.92;68049;1275;1016277;-66
2024/04/09 01:41:13;;;;;;;;;;;;;;;18.18;59.74;98596.30;68033;1275;1016670;-67
2024/04/09 01:44:16;;;;;;;;;;;;;;;18.21;59.41;98596.89;68023;1275;1016362;-67
2024/04/09 01:47:19;;;;;;;;;;;;;;;18.26;59.26;98593.23;68014;1275;1016434;-68
2024/04/09 01:50:26;;;;;;;;;;;;;;;18.20;59.29;98592.91;68010;1275;1016452;-68
2024/04/09 01:53:29;;;;;;;;;;;;;;;18.21;58.84;98591.05;68024;1275;1016743;-66
2024/04/09 01:56:32;;;;;;;;;;;;;;;18.06;59.20;98588.54;68024;1275;1016020;-68
2024/04/09 01:59:36;;;;;;;;;;;;;;;18.00;58.99;98586.50;68086;1275;1016450;-68
2024/04/09 02:02:39;;;;;;;;;;;;;;;17.94;58.87;98586.13;67971;1275;1016483;-66
2024/04/09 02:05:45;;;;;;;;;;;;;;;17.80;59.29;98589.93;67988;1275;1016389;-67
2024/04/09 02:08:48;;;;;;;;;;;;;;;17.55;60.32;98589.81;68045;1275;1015881;-68
2024/04/09 02:11:55;;;;;;;;;;;;;;;17.45;60.74;98590.03;68027;1275;1016392;-66
2024/04/09 02:14:57;;;;;;;;;;;;;;;17.41;61.02;98591.63;68054;1275;1016380;-67
2024/04/09 02:18:01;;;;;;;;;;;;;;;17.39;60.71;98591.27;68063;1275;1016228;-67
2024/04/09 02:21:07;;;;;;;;;;;;;;;17.37;60.54;98590.73;68057;1275;1015806;-68
2024/04/09 02:24:12;;;;;;;;;;;;;;;17.45;60.54;98590.70;68008;1275;1015971;-68
2024/04/09 02:27:16;;;;;;;;;;;;;;;17.57;60.37;98588.91;68054;1275;1018379;-68
2024/04/09 02:30:20;;;;;;;;;;;;;;;17.61;59.98;98591.54;68030;1275;1016225;-67
2024/04/09 02:33:24;;;;;;;;;;;;;;;17.71;59.42;98591.47;68056;1275;1016343;-67
2024/04/09 02:36:27;;;;;;;;;;;;;;;17.90;58.94;98588.61;68008;1275;1017672;-67
2024/04/09 02:39:34;;;;;;;;;;;;;;;18.05;58.23;98586.36;68041;1275;1016161;-68
2024/04/09 02:42:37;;;;;;;;;;;;;;;17.95;58.21;98588.22;67948;1275;1016251;-68
2024/04/09 02:45:59;;;;;;;;;;;;;;;17.69;59.16;98593.42;68019;1275;1016359;-67
2024/04/09 02:49:03;;;;;;;;;;;;;;;17.61;59.82;98593.13;68017;1275;1016402;-68
2024/04/09 02:52:08;;;;;;;;;;;;;;;17.59;59.65;98592.20;68026;1275;1016523;-66
2024/04/09 02:55:14;;;;;;;;;;;;;;;17.47;60.16;98588.58;68043;1275;1016402;-67
2024/04/09 02:58:17;;;;;;;;;;;;;;;17.54;60.22;98592.34;68018;1275;1015750;-68
2024/04/09 03:01:20;;;;;;;;;;;;;;;17.47;60.66;98589.83;68030;1275;1016145;-67
2024/04/09 03:04:27;;;;;;;;;;;;;;;17.47;60.14;98585.36;68022;1275;1016492;-68
2024/04/09 03:07:30;;;;;;;;;;;;;;;17.47;60.30;98585.04;67921;1275;1018756;-68
2024/04/09 03:10:32;;;;;;;;;;;;;;;17.44;59.22;98588.88;68064;1275;1016402;-67
2024/04/09 03:13:39;;;;;;;;;;;;;;;17.35;59.28;98592.17;68017;1275;1016624;-66
2024/04/09 03:16:41;;;;;;;;;;;;;;;17.24;59.99;98593.54;67985;1275;1016461;-67
2024/04/09 03:19:44;;;;;;;;;;;;;;;17.17;60.10;98592.38;68067;1275;1016614;-67
2024/04/09 03:22:46;;;;;;;;;;;;;;;17.23;59.99;98596.99;68060;1275;1016008;-68
2024/04/09 03:25:50;;;;;;;;;;;;;;;17.33;59.99;98594.66;67950;1275;1016047;-68
2024/04/09 03:28:54;;;;;;;;;;;;;;;17.31;60.75;98592.85;68022;1274;1016137;-67
2024/04/09 03:31:57;;;;;;;;;;;;;;;17.54;60.38;98594.51;68059;1275;1016362;-67
2024/04/09 03:34:59;;;;;;;;;;;;;;;17.63;60.46;98594.33;68008;1275;1016456;-68
2024/04/09 03:38:07;;;;;;;;;;;;;;;17.65;60.34;98598.05;68049;1275;1017299;-69
2024/04/09 03:41:31;;;;;;;;;;;;;;;17.67;60.11;98595.79;68029;1275;1016182;-68
2024/04/09 03:44:33;;;;;;;;;;;;;;;17.69;60.31;98596.77;67967;1275;1016418;-68
2024/04/09 03:47:53;;;;;;;;;;;;;;;17.76;60.04;98592.28;68060;1275;1016542;-69
2024/04/09 03:50:56;;;;;;;;;;;;;;;17.80;59.96;98595.55;68030;1275;1016776;-68
2024/04/09 03:54:00;;;;;;;;;;;;;;;17.96;59.33;98587.55;68006;1275;1016425;-68
2024/04/09 03:57:04;;;;;;;;;;;;;;;18.05;59.16;98584.77;67997;1275;1016368;-67
2024/04/09 04:00:12;;;;;;;;;;;;;;;18.06;59.21;98585.21;68055;1275;1016729;-68
2024/04/09 04:03:16;;;;;;;;;;;;;;;18.04;58.96;98588.63;68002;1275;1016126;-68
2024/04/09 04:06:18;;;;;;;;;;;;;;;18.04;59.06;98587.20;67985;1275;1016350;-67
2024/04/09 04:09:23;;;;;;;;;;;;;;;18.06;59.07;98585.69;68035;1275;1016439;-67
2024/04/09 04:12:27;;;;;;;;;;;;;;;18.17;58.95;98586.13;68044;1275;1016734;-67
2024/04/09 04:15:30;;;;;;;;;;;;;;;18.17;59.01;98583.95;67977;1275;1016428;-67
2024/04/09 04:18:34;;;;;;;;;;;;;;;18.23;59.18;98583.92;68018;1275;1016438;-67
2024/04/09 04:21:38;;;;;;;;;;;;;;;18.31;58.76;98581.02;67949;1275;1016475;-67
2024/04/09 04:24:41;;;;;;;;;;;;;;;18.35;58.73;98581.37;68075;1275;1016082;-69
2024/04/09 04:27:44;;;;;;;;;;;;;;;18.36;58.98;98582.68;68019;1275;1016258;-68
2024/04/09 04:30:48;;;;;;;;;;;;;;;18.44;58.86;98577.09;68000;1275;1016866;-66
2024/04/09 04:33:51;;;;;;;;;;;;;;;18.52;58.42;98571.95;68053;1275;1016265;-66
2024/04/09 04:36:54;;;;;;;;;;;;;;;18.54;58.70;98574.00;68026;1275;1016094;-67
2024/04/09 04:39:57;;;;;;;;;;;;;;;18.63;58.54;98576.90;68040;1275;1016194;-62
2024/04/09 04:43:00;;;;;;;;;;;;;;;18.94;57.66;98572.04;68000;1275;1016142;-68
2024/04/09 04:46:04;;;;;;;;;;;;;;;19.25;56.79;98574.80;68050;1275;1016323;-67
2024/04/09 04:49:07;;;;;;;;;;;;;;;19.28;57.04;98575.13;68069;1275;1016784;-68
2024/04/09 04:52:11;;;;;;;;;;;;;;;19.30;56.62;98574.17;68000;1275;1016524;-68
2024/04/09 04:55:14;;;;;;;;;;;;;;;19.43;56.38;98571.27;68029;1275;1019002;-67
2024/04/09 04:58:17;;;;;;;;;;;;;;;19.47;56.07;98571.89;68015;1275;1016299;-67
2024/04/09 05:01:19;;;;;;;;;;;;;;;19.64;56.10;98577.11;68061;1275;1018159;-66
2024/04/09 05:04:22;;;;;;;;;;;;;;;19.82;55.67;98577.17;67993;1275;1016263;-67
2024/04/09 05:07:25;;;;;;;;;;;;;;;19.97;55.46;98573.72;67988;1275;1016341;-67
2024/04/09 05:10:31;;;;;;;;;;;;;;;20.17;54.93;98573.20;68023;1275;1016029;-67
2024/04/09 05:13:33;;;;;;;;;;;;;;;20.30;54.53;98572.80;68052;1275;1016432;-68
2024/04/09 05:17:02;;;;;;;;;;;;;;;20.41;54.32;98570.70;68020;1275;1016415;-68
2024/04/09 05:20:09;;;;;;;;;;;;;;;20.62;53.93;98569.18;67994;1275;1016926;-67
2024/04/09 05:23:16;;;;;;;;;;;;;;;20.82;53.24;98570.54;68063;1275;1016238;-68
2024/04/09 05:26:19;;;;;;;;;;;;;;;21.06;52.80;98570.90;67925;1275;1016397;-65
2024/04/09 05:29:25;;;;;;;;;;;;;;;21.23;52.69;98576.05;68013;1275;1015765;-68
2024/04/09 05:32:27;;;;;;;;;;;;;;;21.38;52.53;98571.38;68049;1275;1017479;-68
2024/04/09 05:35:34;;;;;;;;;;;;;;;21.50;52.57;98577.90;68033;1275;1016350;-68
2024/04/09 05:38:38;;;;;;;;;;;;;;;21.79;52.17;98573.48;68045;1275;1016317;-68
2024/04/09 05:41:41;;;;;;;;;;;;;;;22.12;51.50;98566.61;68024;1275;1016505;-68
2024/04/09 05:44:44;;;;;;;;;;;;;;;22.35;50.77;98563.64;68041;1275;1016257;-68
2024/04/09 05:47:46;;;;;;;;;;;;;;;22.64;50.64;98564.70;68020;1275;1016497;-68
2024/04/09 05:50:59;;;;;;;;;;;;;;;22.81;50.06;98567.02;68022;1275;1016368;-68
2024/04/09 05:54:01;;;;;;;;;;;;;;;22.94;49.53;98565.89;68009;1275;1016499;-67
2024/04/09 05:57:05;;;;;;;;;;;;;;;23.07;49.47;98571.14;68002;1275;1016276;-67
2024/04/09 06:00:08;;;;;;;;;;;;;;;23.37;48.84;98567.92;68011;1275;1016335;-67
2024/04/09 06:03:12;;;;;;;;;;;;;;;23.40;48.73;98563.81;65434;1275;6375736;-68
2024/04/09 06:06:16;;;;;;;;;;;;;;;23.52;48.22;98569.84;68070;1275;1015778;-67
2024/04/09 06:09:19;;;;;;;;;;;;;;;23.77;47.69;98567.48;68030;1275;1016397;-67
2024/04/09 06:12:22;;;;;;;;;;;;;;;23.80;47.54;98568.02;68043;1275;1019131;-67
2024/04/09 06:15:29;;;;;;;;;;;;;;;24.01;47.22;98564.94;68014;1275;1016287;-67
2024/04/09 06:18:34;;;;;;;;;;;;;;;24.38;46.72;98560.47;68056;1275;1016232;-67
2024/04/09 06:21:37;;;;;;;;;;;;;;;24.46;45.82;98559.81;68017;1275;1016273;-67
2024/04/09 06:24:41;;;;;;;;;;;;;;;24.62;45.22;98555.23;68055;1275;1016583;-68
2024/04/09 06:27:44;;;;;;;;;;;;;;;24.82;45.31;98553.04;68043;1275;1016402;-67
2024/04/09 06:30:47;;;;;;;;;;;;;;;24.90;44.71;98554.27;68037;1275;1018595;-67
2024/04/09 06:33:51;;;;;;;;;;;;;;;25.12;44.34;98552.50;67993;1275;1016191;-67
2024/04/09 06:36:54;;;;;;;;;;;;;;;25.20;44.24;98549.69;68064;1275;1016302;-67
2024/04/09 06:39:57;;;;;;;;;;;;;;;25.35;44.37;98554.98;68006;1275;1016391;-67
2024/04/09 06:43:00;;;;;;;;;;;;;;;25.77;43.60;98554.02;68036;1275;1016532;-67
2024/04/09 06:46:04;;;;;;;;;;;;;;;26.14;43.08;98554.45;67992;1275;1016519;-68
2024/04/09 06:49:07;;;;;;;;;;;;;;;26.25;42.57;98551.03;67998;1275;1016489;-67
2024/04/09 06:52:10;;;;;;;;;;;;;;;26.33;42.23;98553.73;67993;1275;1016776;-67
2024/04/09 06:55:13;;;;;;;;;;;;;;;26.45;42.19;98552.33;68003;1275;1016413;-68
2024/04/09 06:58:15;;;;;;;;;;;;;;;26.52;41.89;98550.27;68013;1275;1016468;-67
2024/04/09 07:01:18;;;;;;;;;;;;;;;26.52;42.25;98547.36;67960;1275;1016714;-67
2024/04/09 07:04:21;;;;;;;;;;;;;;;26.73;41.72;98538.46;67968;1275;1016567;-68
2024/04/09 07:07:23;;;;;;;;;;;;;;;26.90;41.30;98541.38;67943;1275;1016912;-67
2024/04/09 07:10:26;;;;;;;;;;;;;;;27.18;41.90;98538.40;67981;1275;1018295;-67
2024/04/09 07:13:31;;;;;;;;;;;;;;;27.51;41.47;98536.98;67992;1275;1016702;-66
2024/04/09 07:16:34;;;;;;;;;;;;;;;27.75;40.79;98532.81;68064;1275;1017138;-66
2024/04/09 07:19:37;;;;;;;;;;;;;;;27.90;40.24;98531.96;68048;1275;1017459;-66
2024/04/09 07:22:40;;;;;;;;;;;;;;;28.01;40.31;98529.46;68049;1275;1016352;-67
2024/04/09 07:25:43;;;;;;;;;;;;;;;28.25;39.69;98519.93;67986;1275;1016047;-67
2024/04/09 07:28:46;;;;;;;;;;;;;;;28.43;39.40;98519.67;68003;1275;1015707;-67
2024/04/09 07:31:48;;;;;;;;;;;;;;;28.59;39.13;98519.02;68065;1275;1016405;-64
2024/04/09 07:34:57;;;;;;;;;;;;;;;28.90;38.93;98515.63;67967;1275;1016413;-67
2024/04/09 07:38:00;;;;;;;;;;;;;;;29.00;38.24;98521.94;68023;1275;1016445;-66
2024/04/09 07:41:03;;;;;;;;;;;;;;;28.99;38.18;98525.45;68057;1275;1016466;-67
2024/04/09 07:44:06;;;;;;;;;;;;;;;29.18;37.63;98524.63;68029;1275;1016296;-67
2024/04/09 07:47:10;;;;;;;;;;;;;;;29.22;37.66;98522.67;68074;1275;1016546;-66
2024/04/09 07:50:13;;;;;;;;;;;;;;;29.35;37.41;98523.08;67984;1275;1016642;-67
2024/04/09 07:53:15;;;;;;;;;;;;;;;29.63;36.89;98518.34;67964;1275;1016308;-67
2024/04/09 07:56:18;;;;;;;;;;;;;;;29.50;36.81;98524.64;68021;1275;1016949;-65
2024/04/09 07:59:22;;;;;;;;;;;;;;;29.56;36.54;98531.08;68066;1275;1016236;-67
2024/04/09 08:02:24;;;;;;;;;;;;;;;29.68;36.29;98529.77;68004;1275;1016395;-66
2024/04/09 08:05:27;;;;;;;;;;;;;;;29.66;36.49;98532.45;68068;1275;1016513;-67
2024/04/09 08:08:31;;;;;;;;;;;;;;;29.89;36.11;98534.96;68034;1275;1016331;-66
2024/04/09 08:11:35;;;;;;;;;;;;;;;29.97;35.73;98532.91;68016;1275;1016212;-66
2024/04/09 08:14:37;;;;;;;;;;;;;;;30.30;35.33;98532.31;68049;1275;1016216;-67
2024/04/09 08:17:40;;;;;;;;;;;;;;;30.54;35.02;98531.17;67997;1275;1017128;-67
2024/04/09 08:20:44;;;;;;;;;;;;;;;30.70;34.77;98529.06;68016;1275;1016512;-66
2024/04/09 08:23:47;;;;;;;;;;;;;;;30.91;34.52;98523.91;68075;1275;1016488;-66
2024/04/09 08:26:49;;;;;;;;;;;;;;;30.95;33.56;98518.73;68067;1275;1016729;-65
2024/04/09 08:29:51;;;;;;;;;;;;;;;30.96;34.11;98517.04;68069;1275;1016286;-66
2024/04/09 08:32:54;;;;;;;;;;;;;;;31.22;33.58;98511.82;68042;1275;1016210;-67
2024/04/09 08:35:56;;;;;;;;;;;;;;;31.38;33.03;98512.54;68039;1275;1016560;-67
2024/04/09 08:38:59;;;;;;;;;;;;;;;31.50;32.92;98513.57;67964;1275;1015949;-66
2024/04/09 08:42:01;;;;;;;;;;;;;;;31.69;32.87;98509.72;68031;1275;1016295;-66
2024/04/09 08:45:04;;;;;;;;;;;;;;;31.77;32.27;98506.64;68040;1275;1016176;-67
2024/04/09 08:48:06;;;;;;;;;;;;;;;31.76;31.97;98504.88;67987;1275;1016354;-67
2024/04/09 08:51:10;;;;;;;;;;;;;;;31.77;32.15;98511.29;67974;1275;1016220;-67
2024/04/09 08:54:12;;;;;;;;;;;;;;;31.79;31.74;98506.19;67945;1275;1016475;-66
2024/04/09 08:57:15;;;;;;;;;;;;;;;31.87;31.94;98505.70;68055;1275;1016315;-65
2024/04/09 09:00:18;;;;;;;;;;;;;;;32.05;31.48;98507.52;68045;1275;1016939;-67
2024/04/09 09:03:21;;;;;;;;;;;;;;;32.08;31.53;98507.63;67959;1275;1016479;-66
2024/04/09 09:06:23;;;;;;;;;;;;;;;32.06;31.20;98506.07;67992;1275;1019183;-67
2024/04/09 09:09:26;;;;;;;;;;;;;;;32.08;31.19;98501.77;68025;1275;1016410;-67
2024/04/09 09:12:29;;;;;;;;;;;;;;;32.25;30.83;98499.09;68021;1275;1016455;-66
2024/04/09 09:15:31;;;;;;;;;;;;;;;32.41;30.96;98496.82;68014;1275;1018673;-65
2024/04/09 09:18:34;;;;;;;;;;;;;;;32.70;30.81;98497.02;68038;1275;1016173;-67
2024/04/09 09:21:36;;;;;;;;;;;;;;;32.94;30.92;98497.36;68036;1275;1016391;-67
2024/04/09 09:24:38;;;;;;;;;;;;;;;33.11;30.52;98491.10;68050;1273;1018500;-67
2024/04/09 09:27:41;;;;;;;;;;;;;;;33.00;30.38;98491.78;68033;1275;1016465;-66
2024/04/09 09:30:43;;;;;;;;;;;;;;;33.00;30.25;98495.27;67994;1275;1016477;-66
2024/04/09 09:33:46;;;;;;;;;;;;;;;33.19;30.41;98497.61;68067;1275;1016045;-66
2024/04/09 09:36:48;;;;;;;;;;;;;;;33.46;30.53;98493.35;68067;1275;1016854;-66
2024/04/09 09:39:50;;;;;;;;;;;;;;;33.51;30.54;98491.14;68041;1275;1016011;-66
2024/04/09 09:42:54;;;;;;;;;;;;;;;33.56;30.34;98485.81;68072;1275;1016266;-67
2024/04/09 09:45:56;;;;;;;;;;;;;;;33.64;30.18;98486.13;68038;1275;1016487;-66
2024/04/09 09:48:59;;;;;;;;;;;;;;;33.52;29.21;98487.30;68008;1275;1016365;-66
2024/04/09 09:52:01;;;;;;;;;;;;;;;33.39;29.74;98484.45;68024;1275;1016507;-66
2024/04/09 09:55:04;;;;;;;;;;;;;;;33.46;29.76;98483.73;68018;1275;1016984;-66
2024/04/09 09:58:07;;;;;;;;;;;;;;;33.64;29.18;98483.52;68017;1275;1017062;-66
2024/04/09 10:01:09;;;;;;;;;;;;;;;33.60;28.52;98479.94;67953;1275;1017051;-66
2024/04/09 10:04:11;;;;;;;;;;;;;;;33.46;28.46;98479.77;67983;1275;1016409;-66
2024/04/09 10:07:16;;;;;;;;;;;;;;;33.40;28.72;98475.49;67952;1275;1016711;-66
2024/04/09 10:10:18;;;;;;;;;;;;;;;33.59;29.13;98469.23;67938;1275;1016466;-66
2024/04/09 10:13:21;;;;;;;;;;;;;;;33.95;28.07;98463.95;67930;1275;1016417;-66
2024/04/09 10:16:23;;;;;;;;;;;;;;;33.93;27.95;98462.96;67904;1275;1016438;-66
2024/04/09 10:19:26;;;;;;;;;;;;;;;33.90;27.08;98462.27;67903;1275;1016334;-66
2024/04/09 10:22:28;;;;;;;;;;;;;;;33.79;27.09;98459.64;67914;1275;1016232;-66
2024/04/09 10:25:30;;;;;;;;;;;;;;;33.97;26.84;98452.50;68063;1275;1018327;-66
2024/04/09 10:28:34;;;;;;;;;;;;;;;34.08;27.41;98452.56;68029;1275;1018484;-66
2024/04/09 10:31:36;;;;;;;;;;;;;;;34.35;27.32;98447.45;68008;1275;1016185;-66
2024/04/09 10:34:41;;;;;;;;;;;;;;;34.66;26.59;98443.25;67897;1275;1016313;-67
2024/04/09 10:37:43;;;;;;;;;;;;;;;34.71;25.80;98437.48;68003;1275;1015886;-66
2024/04/09 10:40:46;;;;;;;;;;;;;;;34.65;25.99;98439.39;67978;1275;1017604;-67
2024/04/09 10:43:49;;;;;;;;;;;;;;;34.49;24.92;98434.57;67994;1275;1016730;-67
2024/04/09 10:46:51;;;;;;;;;;;;;;;34.40;25.38;98432.70;68036;1275;1018864;-66
2024/04/09 10:49:54;;;;;;;;;;;;;;;34.55;25.32;98422.75;67989;1275;1016436;-66
2024/04/09 10:52:56;;;;;;;;;;;;;;;34.60;24.63;98423.48;67975;1275;1019790;-66
2024/04/09 10:55:58;;;;;;;;;;;;;;;34.35;25.07;98423.77;67987;1275;1016444;-66
2024/04/09 10:59:00;;;;;;;;;;;;;;;34.26;24.63;98418.52;67992;1275;1016504;-67
2024/04/09 11:02:05;;;;;;;;;;;;;;;34.19;24.72;98416.65;67927;1275;1016190;-67
2024/04/09 11:05:09;;;;;;;;;;;;;;;33.99;24.63;98412.98;68031;1275;1016125;-67
2024/04/09 11:08:11;;;;;;;;;;;;;;;34.16;24.91;98413.77;68013;1275;1016688;-66
2024/04/09 11:11:13;;;;;;;;;;;;;;;34.38;24.55;98407.86;68021;1275;1016471;-66
2024/04/09 11:14:16;;;;;;;;;;;;;;;34.48;24.84;98407.41;67984;1275;1016439;-67
2024/04/09 11:17:18;;;;;;;;;;;;;;;34.50;24.98;98407.85;68003;1275;1016469;-67
2024/04/09 11:20:20;;;;;;;;;;;;;;;34.46;25.23;98410.31;67979;1275;1016482;-67
2024/04/09 11:23:23;;;;;;;;;;;;;;;34.60;25.32;98403.23;68002;1275;1016947;-66
2024/04/09 11:26:25;;;;;;;;;;;;;;;34.84;25.51;98390.36;67991;1275;1016941;-66
2024/04/09 11:29:28;;;;;;;;;;;;;;;35.12;25.42;98384.50;67992;1275;1016435;-67
2024/04/09 11:32:30;;;;;;;;;;;;;;;35.43;25.29;98378.58;67991;1275;1016471;-67
2024/04/09 11:35:32;;;;;;;;;;;;;;;35.59;24.44;98373.61;67994;1275;1016490;-67
2024/04/09 11:38:34;;;;;;;;;;;;;;;35.48;23.97;98372.81;67959;1275;1018224;-66
2024/04/09 11:41:37;;;;;;;;;;;;;;;35.35;24.43;98371.11;68019;1275;1017890;-66
2024/04/09 11:44:39;;;;;;;;;;;;;;;35.38;24.66;98368.41;67970;1275;1016481;-67
2024/04/09 11:47:41;;;;;;;;;;;;;;;35.45;24.57;98366.97;68008;1275;1016087;-66
2024/04/09 11:50:43;;;;;;;;;;;;;;;35.47;24.41;98363.43;67997;1275;1016484;-66
2024/04/09 11:53:46;;;;;;;;;;;;;;;35.46;23.91;98361.57;68032;1275;1016822;-66
2024/04/09 11:56:48;;;;;;;;;;;;;;;35.33;23.87;98362.09;67986;1275;1019157;-66
2024/04/09 11:59:53;;;;;;;;;;;;;;;35.28;24.02;98363.84;67950;1275;1016704;-66
2024/04/09 12:02:55;;;;;;;;;;;;;;;35.21;24.19;98362.27;68018;1275;1016422;-66
2024/04/09 12:06:00;;;;;;;;;;;;;;;35.37;24.29;98356.96;68004;1275;1016514;-66
2024/04/09 12:09:07;;;;;;;;;;;;;;;35.55;24.12;98350.80;68021;1275;1017191;-66
2024/04/09 12:12:09;;;;;;;;;;;;;;;35.63;24.12;98349.68;68008;1275;1016817;-66
2024/04/09 12:15:12;;;;;;;;;;;;;;;35.68;23.91;98345.05;68002;1275;1017193;-66
2024/04/09 12:18:14;;;;;;;;;;;;;;;35.65;24.07;98344.23;67976;1275;1016293;-66
2024/04/09 12:21:16;;;;;;;;;;;;;;;35.60;24.16;98338.61;67945;1275;1016426;-67
2024/04/09 12:24:18;;;;;;;;;;;;;;;35.45;24.40;98343.70;67941;1275;1015841;-66
2024/04/09 12:27:20;;;;;;;;;;;;;;;35.50;24.75;98336.63;67993;1275;1016452;-66
2024/04/09 12:30:23;;;;;;;;;;;;;;;35.81;24.59;98336.03;67914;1275;1016450;-66
2024/04/09 12:33:25;;;;;;;;;;;;;;;35.79;24.60;98329.16;68033;1275;1016840;-66
2024/04/09 12:36:28;;;;;;;;;;;;;;;35.86;24.84;98330.33;68030;1275;1017054;-66
2024/04/09 12:39:30;;;;;;;;;;;;;;;35.98;24.90;98327.55;68033;1275;1016416;-66
2024/04/09 12:42:33;;;;;;;;;;;;;;;35.94;24.80;98324.50;68000;1275;1017216;-67
2024/04/09 12:45:35;;;;;;;;;;;;;;;35.90;25.17;98319.91;68017;1275;1016951;-66
2024/04/09 12:48:37;;;;;;;;;;;;;;;36.01;25.40;98307.86;68019;1275;1016762;-67
2024/04/09 12:51:40;;;;;;;;;;;;;;;36.09;25.26;98310.04;68044;1275;1016507;-66
2024/04/09 12:54:42;;;;;;;;;;;;;;;36.10;25.01;98310.20;68048;1275;1016904;-66
2024/04/09 12:57:44;;;;;;;;;;;;;;;36.15;25.18;98306.16;67961;1275;1016195;-66
2024/04/09 13:00:46;;;;;;;;;;;;;;;36.32;25.14;98312.11;67990;1275;1017404;-66
2024/04/09 13:03:50;;;;;;;;;;;;;;;36.45;25.01;98310.48;67938;1275;1017085;-66
2024/04/09 13:06:53;;;;;;;;;;;;;;;36.52;25.02;98307.98;67977;1275;1016452;-66
2024/04/09 13:09:56;;;;;;;;;;;;;;;36.74;25.45;98304.23;68005;1275;1016403;-66
2024/04/09 13:12:58;;;;;;;;;;;;;;;36.62;25.18;98303.65;68041;1275;1018101;-66
2024/04/09 13:16:00;;;;;;;;;;;;;;;36.50;24.97;98300.24;68011;1275;1016314;-66
2024/04/09 13:19:03;;;;;;;;;;;;;;;36.28;25.31;98296.92;67976;1275;1015997;-65
2024/04/09 13:22:05;;;;;;;;;;;;;;;36.32;25.08;98296.34;67965;1275;1016570;-66
2024/04/09 13:25:08;;;;;;;;;;;;;;;36.27;24.88;98296.27;67984;1275;1016905;-66
2024/04/09 13:28:10;;;;;;;;;;;;;;;36.27;24.41;98288.85;68016;1275;1016374;-66
2024/04/09 13:31:12;;;;;;;;;;;;;;;36.24;24.42;98287.66;68008;1274;1017180;-65
2024/04/09 13:34:15;;;;;;;;;;;;;;;36.21;24.27;98282.80;67987;1275;1017826;-66
2024/04/09 13:37:17;;;;;;;;;;;;;;;36.50;24.08;98278.02;68001;1275;1016408;-66
2024/04/09 13:40:19;;;;;;;;;;;;;;;36.49;24.28;98273.16;67945;1275;1016289;-66
2024/04/09 13:43:21;;;;;;;;;;;;;;;36.38;24.47;98272.86;67978;1275;1016390;-66
2024/04/09 13:46:24;;;;;;;;;;;;;;;36.34;24.63;98268.39;67946;1275;1017760;-66
2024/04/09 13:49:26;;;;;;;;;;;;;;;36.41;24.72;98272.30;67944;1275;1016037;-66
2024/04/09 13:52:28;;;;;;;;;;;;;;;36.25;24.65;98268.38;67971;1275;1016413;-67
2024/04/09 13:55:30;;;;;;;;;;;;;;;35.97;24.89;98266.38;68002;1275;1016321;-66
2024/04/09 13:58:33;;;;;;;;;;;;;;;36.02;25.21;98264.63;67981;1275;1016449;-66
2024/04/09 14:01:35;;;;;;;;;;;;;;;36.13;24.91;98267.30;67990;1275;1018262;-65
2024/04/09 14:04:37;;;;;;;;;;;;;;;35.99;24.66;98261.58;68002;1275;1016307;-67
2024/04/09 14:07:39;;;;;;;;;;;;;;;35.93;24.73;98260.99;68006;1275;1016459;-66
2024/04/09 14:10:42;;;;;;;;;;;;;;;35.97;24.71;98266.71;68006;1275;1016459;-66
2024/04/09 14:13:48;;;;;;;;;;;;;;;36.15;24.83;98271.48;68007;1275;1016307;-66
2024/04/09 14:16:50;;;;;;;;;;;;;;;35.99;24.67;98268.35;67988;1275;1016912;-66
2024/04/09 14:19:53;;;;;;;;;;;;;;;35.91;24.36;98268.29;68020;1275;1016885;-66
2024/04/09 14:22:55;;;;;;;;;;;;;;;35.81;24.47;98269.15;67990;1275;1016465;-66
2024/04/09 14:25:58;;;;;;;;;;;;;;;35.83;24.32;98265.66;67974;1275;1016311;-66
2024/04/09 14:29:00;;;;;;;;;;;;;;;35.71;24.44;98264.02;67981;1275;1016473;-65
2024/04/09 14:32:03;;;;;;;;;;;;;;;35.94;24.55;98263.23;67961;1275;1016546;-66
2024/04/09 14:35:05;;;;;;;;;;;;;;;35.94;24.45;98260.66;67997;1275;1016335;-66
2024/04/09 14:38:07;;;;;;;;;;;;;;;35.73;24.50;98260.73;68010;1275;1016549;-65
2024/04/09 14:41:11;;;;;;;;;;;;;;;35.54;24.66;98258.70;68006;1275;1016211;-66
2024/04/09 14:44:14;;;;;;;;;;;;;;;35.51;24.93;98259.57;67963;1275;1016488;-67
2024/04/09 14:47:16;;;;;;;;;;;;;;;35.63;24.64;98259.04;67965;1275;1016267;-66
2024/04/09 14:50:18;;;;;;;;;;;;;;;35.46;24.92;98261.20;67974;1275;1016264;-67
2024/04/09 14:53:21;;;;;;;;;;;;;;;35.25;24.85;98257.92;68013;1275;1018401;-66
2024/04/09 14:56:24;;;;;;;;;;;;;;;35.09;25.16;98258.03;68008;1275;1016641;-66
2024/04/09 14:59:26;;;;;;;;;;;;;;;35.27;24.91;98256.61;67984;1275;1016092;-66
2024/04/09 15:02:29;;;;;;;;;;;;;;;35.25;25.09;98255.84;67989;1275;1016317;-66
2024/04/09 15:05:31;;;;;;;;;;;;;;;35.21;25.13;98253.70;68048;1275;1016769;-67
2024/04/09 15:08:33;;;;;;;;;;;;;;;35.34;25.22;98251.20;68054;1275;1017995;-66
2024/04/09 15:11:36;;;;;;;;;;;;;;;35.52;25.18;98253.63;67999;1275;1016217;-66
2024/04/09 15:14:38;;;;;;;;;;;;;;;35.77;25.00;98251.47;67979;1275;1016484;-67
2024/04/09 15:17:41;;;;;;;;;;;;;;;35.66;25.06;98252.02;67961;1275;1016149;-64
2024/04/09 15:20:43;;;;;;;;;;;;;;;35.79;25.25;98248.36;68037;1275;1016650;-66
2024/04/09 15:23:45;;;;;;;;;;;;;;;36.07;25.11;98245.09;68000;1275;1016184;-66
2024/04/09 15:26:48;;;;;;;;;;;;;;;36.58;24.73;98244.35;68046;1275;1016489;-66
2024/04/09 15:29:50;;;;;;;;;;;;;;;36.61;24.81;98246.96;67979;1275;1016434;-66
2024/04/09 15:32:52;;;;;;;;;;;;;;;36.92;24.59;98249.77;68002;1275;1016480;-66